Time;durP1;ratioP1;P1;durP2;ratioP2;P2;SDS_P1;SDS_P2;PMS_P1;PMS_P2;Temp;Humidity;BMP_temperature;BMP_pressure;BME280_temperature;BME280_humidity;BME280_pressure;Samples;Min_cycle;Max_cycle;Signal;HPM_P1;HPM_P2
2022/11/09 00:01:19;;;;;;;49.10;24.35;;;;;;;7.26;84.65;98681.51;1664666;86;25668;-64
2022/11/09 00:03:46;;;;;;;44.65;22.13;;;;;;;7.22;84.64;98681.02;1693535;84;27480;-64
2022/11/09 00:06:13;;;;;;;41.92;22.73;;;;;;;7.19;84.40;98681.06;1664213;86;25443;-64
2022/11/09 00:08:41;;;;;;;49.50;25.10;;;;;;;7.15;84.86;98683.57;1693738;84;25671;-64
2022/11/09 00:11:10;;;;;;;71.85;30.70;;;;;;;7.13;84.58;98676.22;1664332;86;25887;-64
2022/11/09 00:13:39;;;;;;;41.18;21.48;;;;;;;7.13;84.69;98684.94;1693928;84;25652;-64
2022/11/09 00:16:08;;;;;;;52.20;25.75;;;;;;;7.12;84.54;98677.88;1664579;86;27444;-64
2022/11/09 00:18:36;;;;;;;79.05;47.00;;;;;;;7.12;84.39;98680.06;1693911;84;25435;-64
2022/11/09 00:21:10;;;;;;;51.45;29.57;;;;;;;7.13;84.68;98682.22;1664261;86;25451;-64
2022/11/09 00:23:36;;;;;;;73.87;30.27;;;;;;;7.12;84.67;98677.88;1693504;84;25703;-64
2022/11/09 00:26:07;;;;;;;81.60;30.43;;;;;;;7.11;85.38;98689.31;1664124;86;25740;-64
2022/11/09 00:28:34;;;;;;;102.70;39.63;;;;;;;7.12;85.37;98678.70;1694499;84;27477;-64
2022/11/09 00:31:12;;;;;;;57.93;24.75;;;;;;;7.15;85.46;98687.66;1664094;86;25667;-64
2022/11/09 00:33:39;;;;;;;58.95;25.30;;;;;;;7.18;85.28;98684.08;1693669;84;25449;-64
2022/11/09 00:36:10;;;;;;;39.83;20.05;;;;;;;7.21;85.02;98680.77;1664125;86;25795;-64
2022/11/09 00:38:39;;;;;;;35.75;19.17;;;;;;;7.25;84.97;98680.44;1694041;84;25622;-64
2022/11/09 00:41:08;;;;;;;33.50;18.32;;;;;;;7.28;84.84;98680.68;1664125;86;27511;-64
2022/11/09 00:43:34;;;;;;;41.35;20.55;;;;;;;7.34;85.19;98676.54;1694050;84;25686;-64
2022/11/09 00:46:01;;;;;;;35.55;21.52;;;;;;;7.39;84.96;98680.00;1664432;86;25490;-64
2022/11/09 00:48:27;;;;;;;36.38;21.40;;;;;;;7.46;85.03;98681.56;1693570;84;25728;-64
2022/11/09 00:50:56;;;;;;;35.70;19.35;;;;;;;7.50;85.00;98678.50;1664529;86;25545;-64
2022/11/09 00:53:23;;;;;;;30.85;16.00;;;;;;;7.53;85.45;98674.66;1693949;84;27563;-64
2022/11/09 00:55:57;;;;;;;41.15;20.65;;;;;;;7.56;85.64;98675.97;1664336;86;25476;-64
2022/11/09 00:58:25;;;;;;;45.73;22.75;;;;;;;7.58;84.93;98677.05;1692866;84;25486;-64
2022/11/09 01:00:52;;;;;;;33.67;16.73;;;;;;;7.59;84.98;98674.02;1664453;86;26414;-64
2022/11/09 01:03:20;;;;;;;27.30;14.65;;;;;;;7.58;84.71;98676.50;1696169;84;25775;-64
2022/11/09 01:05:46;;;;;;;28.00;14.87;;;;;;;7.55;84.78;98682.54;1720453;83;27391;-64
2022/11/09 01:08:13;;;;;;;31.42;14.98;;;;;;;7.56;84.62;98688.24;1704780;84;25706;-64
2022/11/09 01:10:42;;;;;;;27.52;15.32;;;;;;;7.52;84.51;98679.83;1704882;84;25482;-64
2022/11/09 01:13:10;;;;;;;29.95;15.83;;;;;;;7.50;84.63;98673.88;1705142;84;26654;-64
2022/11/09 01:15:48;;;;;;;44.23;26.62;;;;;;;7.49;84.65;98668.14;1705300;84;25603;-64
2022/11/09 01:18:16;;;;;;;28.00;15.83;;;;;;;7.48;84.73;98672.52;1705236;84;28366;-64
2022/11/09 01:20:47;;;;;;;32.58;16.82;;;;;;;7.47;84.82;98665.45;1705105;84;25481;-64
2022/11/09 01:23:15;;;;;;;31.82;16.60;;;;;;;7.50;84.65;98671.69;1705410;84;25497;-64
2022/11/09 01:25:43;;;;;;;26.80;14.18;;;;;;;7.49;84.69;98671.44;1705231;84;25755;-64
2022/11/09 01:28:10;;;;;;;26.15;14.33;;;;;;;7.49;84.51;98661.32;1704899;84;25616;-64
2022/11/09 01:30:41;;;;;;;28.60;14.68;;;;;;;7.48;84.36;98667.06;1704901;84;27511;-64
2022/11/09 01:33:10;;;;;;;29.72;15.40;;;;;;;7.44;84.43;98652.41;1705454;84;33146;-64
2022/11/09 01:35:39;;;;;;;27.73;15.30;;;;;;;7.40;84.23;98654.92;1705120;84;25486;-64
2022/11/09 01:38:07;;;;;;;37.88;21.77;;;;;;;7.37;84.20;98648.69;1704852;84;25773;-64
2022/11/09 01:40:37;;;;;;;31.97;17.98;;;;;;;7.34;84.05;98652.80;1705047;84;25674;-64
2022/11/09 01:43:17;;;;;;;40.83;23.77;;;;;;;;;;1705235;84;27231;-64
2022/11/09 01:45:54;;;;;;;36.57;18.37;;;;;;;7.31;83.92;98650.66;1675670;85;25684;-64
2022/11/09 01:48:26;;;;;;;51.58;22.80;;;;;;;7.28;84.03;98642.52;1671173;85;25466;-64
2022/11/09 01:51:00;;;;;;;31.90;16.40;;;;;;;7.26;84.15;98645.28;1704239;82;25756;-64
2022/11/09 01:53:30;;;;;;;33.15;16.35;;;;;;;7.22;83.94;98644.22;1732391;82;25591;-64
2022/11/09 01:56:02;;;;;;;37.57;18.97;;;;;;;7.20;84.11;98640.42;1732656;82;27488;-64
2022/11/09 01:58:34;;;;;;;33.20;17.55;;;;;;;7.20;84.12;98634.19;1732340;82;25622;-64
2022/11/09 02:01:01;;;;;;;26.12;13.38;;;;;;;7.20;84.15;98629.52;1728202;82;25728;-64
2022/11/09 02:03:38;;;;;;;56.95;29.98;;;;;;;7.21;84.29;98633.89;1732238;82;25669;-64
2022/11/09 02:06:08;;;;;;;46.55;29.02;;;;;;;7.24;84.17;98634.67;1729334;83;25437;-64
2022/11/09 02:08:35;;;;;;;34.55;21.33;;;;;;;7.25;84.16;98632.73;1729259;83;26959;-64
2022/11/09 02:11:09;;;;;;;41.55;22.73;;;;;;;7.24;84.23;98632.48;1728872;83;25429;-64
2022/11/09 02:13:46;;;;;;;30.62;17.35;;;;;;;7.23;84.20;98630.30;1729353;83;25503;-64
2022/11/09 02:16:14;;;;;;;28.67;15.80;;;;;;;7.20;84.26;98621.34;1728916;83;25721;-64
2022/11/09 02:18:49;;;;;;;39.40;18.92;;;;;;;7.17;84.24;98624.69;1728937;83;25762;-64
2022/11/09 02:21:16;;;;;;;25.17;14.30;;;;;;;7.14;84.19;98626.06;1729473;83;28033;-64
2022/11/09 02:23:42;;;;;;;49.13;24.57;;;;;;;7.14;84.26;98627.42;1729180;83;25626;-65
2022/11/09 02:26:13;;;;;;;28.55;16.00;;;;;;;7.15;84.25;98629.06;1729422;82;25495;-64
2022/11/09 02:28:41;;;;;;;28.47;14.40;;;;;;;7.18;84.05;98640.47;1728960;83;27852;-65
2022/11/09 02:31:12;;;;;;;25.75;14.13;;;;;;;7.20;83.86;98636.34;1728990;83;25432;-65
2022/11/09 02:33:54;;;;;;;21.73;12.05;;;;;;;7.22;83.69;98628.69;1729323;83;29996;-64
2022/11/09 02:36:22;;;;;;;22.58;12.15;;;;;;;7.23;83.70;98628.94;1729208;82;26080;-64
2022/11/09 02:38:50;;;;;;;21.57;12.78;;;;;;;7.21;83.93;98631.70;1729047;83;25579;-65
2022/11/09 02:41:17;;;;;;;22.30;13.03;;;;;;;7.25;84.25;98624.02;1729465;83;25713;-64
2022/11/09 02:43:43;;;;;;;23.67;12.80;;;;;;;7.28;84.25;98622.61;1729133;83;25667;-64
2022/11/09 02:46:09;;;;;;;23.85;13.70;;;;;;;7.31;84.14;98617.94;1729066;83;26788;-65
2022/11/09 02:48:36;;;;;;;27.10;13.93;;;;;;;7.33;84.24;98627.19;1729390;83;25448;-65
2022/11/09 02:51:02;;;;;;;24.27;12.80;;;;;;;7.36;83.88;98628.79;1729107;83;25527;-65
2022/11/09 02:53:29;;;;;;;23.18;12.80;;;;;;;7.36;83.65;98629.33;1729535;82;25766;-65
2022/11/09 02:55:55;;;;;;;21.12;12.05;;;;;;;7.34;83.55;98630.20;1729272;82;25640;-65
2022/11/09 02:58:21;;;;;;;28.40;15.70;;;;;;;7.31;83.48;98634.87;1729079;83;29586;-64
2022/11/09 03:00:47;;;;;;;25.12;14.55;;;;;;;7.25;84.14;98634.92;1729365;83;26012;-65
2022/11/09 03:03:14;;;;;;;30.00;14.65;;;;;;;7.23;84.44;98633.59;1729136;83;25599;-64
2022/11/09 03:05:42;;;;;;;28.50;13.25;;;;;;;7.23;84.76;98636.33;1729121;83;25895;-64
2022/11/09 03:08:08;;;;;;;22.98;12.82;;;;;;;7.28;85.13;98638.97;1729056;82;25631;-64
2022/11/09 03:10:34;;;;;;;25.82;13.25;;;;;;;7.33;84.95;98644.37;1729229;83;27371;-64
2022/11/09 03:13:01;;;;;;;27.58;14.53;;;;;;;7.39;84.38;98645.11;1728951;83;25611;-64
2022/11/09 03:15:27;;;;;;;21.55;11.28;;;;;;;7.43;84.44;98637.16;1729007;83;25449;-64
2022/11/09 03:17:53;;;;;;;18.12;9.70;;;;;;;7.47;84.44;98639.01;1729022;83;27911;-64
2022/11/09 03:20:19;;;;;;;18.82;11.18;;;;;;;7.48;84.57;98629.72;1729162;83;25593;-64
2022/11/09 03:22:46;;;;;;;22.48;12.55;;;;;;;7.55;84.75;98631.27;1729070;83;27457;-64
2022/11/09 03:25:12;;;;;;;20.85;12.65;;;;;;;7.57;84.42;98626.34;1729001;83;25692;-64
2022/11/09 03:27:41;;;;;;;25.05;14.10;;;;;;;7.61;84.47;98630.09;1729251;83;25647;-64
2022/11/09 03:30:09;;;;;;;25.32;13.08;;;;;;;7.63;83.80;98630.05;1729057;83;25494;-65
2022/11/09 03:32:35;;;;;;;29.05;14.80;;;;;;;7.65;83.81;98625.12;1729379;83;25636;-64
2022/11/09 03:35:01;;;;;;;25.17;14.18;;;;;;;7.69;83.52;98632.71;1729071;83;27451;-64
2022/11/09 03:37:28;;;;;;;27.67;14.45;;;;;;;7.65;83.17;98624.30;1728958;83;25626;-64
2022/11/09 03:39:54;;;;;;;25.57;13.30;;;;;;;7.60;83.38;98625.18;1729074;83;25611;-64
2022/11/09 03:42:20;;;;;;;27.73;14.18;;;;;;;7.55;83.64;98621.18;1728927;83;27792;-64
2022/11/09 03:44:46;;;;;;;24.50;12.75;;;;;;;7.51;83.29;98620.13;1729198;83;25663;-65
2022/11/09 03:47:13;;;;;;;24.20;13.62;;;;;;;7.45;83.75;98619.39;1729454;83;27450;-64
2022/11/09 03:49:39;;;;;;;25.65;13.43;;;;;;;7.44;84.07;98618.32;1728975;83;25635;-64
2022/11/09 03:52:05;;;;;;;27.20;15.45;;;;;;;7.42;83.87;98615.10;1729014;83;25492;-64
2022/11/09 03:54:32;;;;;;;25.40;13.65;;;;;;;7.38;83.84;98618.41;1728989;83;25801;-64
2022/11/09 03:56:59;;;;;;;26.00;12.60;;;;;;;7.35;83.69;98613.55;1729196;83;25445;-64
2022/11/09 03:59:25;;;;;;;23.47;12.30;;;;;;;7.35;84.35;98613.55;1729310;83;27327;-64
2022/11/09 04:01:52;;;;;;;25.10;13.15;;;;;;;7.39;84.46;98614.57;1729197;83;25594;-64
2022/11/09 04:04:21;;;;;;;24.18;13.18;;;;;;;7.45;84.41;98614.52;1729158;83;25486;-64
2022/11/09 04:06:48;;;;;;;25.82;14.18;;;;;;;7.47;84.31;98602.20;1729314;83;25770;-64
2022/11/09 04:09:16;;;;;;;20.27;10.78;;;;;;;7.47;83.92;98604.10;1729233;83;25477;-64
2022/11/09 04:11:42;;;;;;;23.35;13.68;;;;;;;7.46;83.78;98594.31;1728977;83;27424;-64
2022/11/09 04:14:09;;;;;;;23.40;13.80;;;;;;;7.45;83.65;98598.94;1729335;83;25883;-64
2022/11/09 04:16:35;;;;;;;23.38;13.65;;;;;;;7.47;83.68;98601.38;1729184;83;25745;-64
2022/11/09 04:19:01;;;;;;;29.95;17.52;;;;;;;7.45;83.52;98600.88;1729352;83;25811;-64
2022/11/09 04:21:28;;;;;;;65.47;31.45;;;;;;;7.46;83.41;98599.77;1729104;83;25683;-64
2022/11/09 04:23:54;;;;;;;131.43;73.30;;;;;;;7.46;83.40;98591.05;1729271;83;27440;-64
2022/11/09 04:26:21;;;;;;;161.20;75.00;;;;;;;7.46;83.39;98599.77;1729064;83;25492;-64
2022/11/09 04:28:47;;;;;;;128.40;62.23;;;;;;;7.46;83.86;98598.41;1729450;83;25626;-64
2022/11/09 04:31:13;;;;;;;104.58;57.43;;;;;;;7.44;83.55;98595.97;1729059;83;25662;-64
2022/11/09 04:33:40;;;;;;;344.95;155.15;;;;;;;7.41;83.74;98589.73;1729025;83;25630;-64
2022/11/09 04:36:08;;;;;;;77.90;32.60;;;;;;;7.42;83.62;98600.10;1728998;83;27458;-64
2022/11/09 04:38:35;;;;;;;40.78;20.43;;;;;;;7.42;83.54;98598.17;1729159;83;25615;-64
2022/11/09 04:41:04;;;;;;;25.43;14.73;;;;;;;7.42;83.28;98604.19;1729147;82;25460;-64
2022/11/09 04:43:30;;;;;;;34.43;17.80;;;;;;;7.35;83.18;98601.28;1729331;83;26204;-64
2022/11/09 04:46:00;;;;;;;29.25;16.25;;;;;;;7.29;82.89;98601.08;1729098;82;25659;-64
2022/11/09 04:48:27;;;;;;;24.72;13.58;;;;;;;7.30;83.38;98605.97;1729017;83;27468;-64
2022/11/09 04:51:02;;;;;;;20.45;11.70;;;;;;;7.32;83.13;98604.59;1729242;82;25500;-64
2022/11/09 04:53:30;;;;;;;22.75;12.93;;;;;;;7.29;83.01;98603.81;1729341;83;25217;-64
2022/11/09 04:55:57;;;;;;;23.22;12.90;;;;;;;7.26;82.95;98606.55;1729260;83;25690;-64
2022/11/09 04:58:24;;;;;;;187.72;50.23;;;;;;;7.22;83.15;98600.61;1729037;83;25385;-64
2022/11/09 05:00:51;;;;;;;104.60;30.30;;;;;;;7.21;83.51;98597.09;1728991;83;27386;-64
2022/11/09 05:03:18;;;;;;;110.95;32.23;;;;;;;7.20;84.15;98597.39;1728899;83;25687;-64
2022/11/09 05:05:44;;;;;;;122.42;30.90;;;;;;;7.21;84.22;98595.73;1729151;83;25606;-64
2022/11/09 05:08:11;;;;;;;78.92;22.77;;;;;;;7.21;84.33;98588.92;1729315;83;25718;-64
2022/11/09 05:10:38;;;;;;;30.20;17.73;;;;;;;7.22;84.33;98589.17;1729013;83;25607;-64
2022/11/09 05:13:08;;;;;;;174.82;78.07;;;;;;;7.23;84.22;98596.80;1729436;83;27515;-64
2022/11/09 05:15:35;;;;;;;124.80;38.83;;;;;;;7.25;84.15;98602.21;1729222;83;25514;-64
2022/11/09 05:18:03;;;;;;;76.00;26.50;;;;;;;7.28;84.14;98604.89;1728947;83;25426;-64
2022/11/09 05:20:31;;;;;;;70.12;28.10;;;;;;;7.31;84.51;98601.58;1728904;83;25695;-64
2022/11/09 05:25:45;;;;;;;96.35;31.45;;;;;;;7.35;84.23;98599.91;1729105;83;27437;-64
2022/11/09 05:28:12;;;;;;;119.97;66.17;;;;;;;7.37;84.21;98604.50;1729160;83;25638;-64
2022/11/09 05:30:39;;;;;;;136.92;62.43;;;;;;;7.37;84.22;98600.41;1729363;83;25681;-64
2022/11/09 05:33:05;;;;;;;185.37;90.83;;;;;;;7.41;84.02;98604.73;1728966;83;27862;-64
2022/11/09 05:35:33;;;;;;;88.10;43.52;;;;;;;7.40;84.40;98604.48;1729117;83;25674;-64
2022/11/09 05:37:59;;;;;;;42.93;17.15;;;;;;;7.44;84.27;98604.69;1729125;82;27647;-64
2022/11/09 05:40:27;;;;;;;66.97;22.82;;;;;;;7.44;84.77;98600.06;1728962;83;53748;-64
2022/11/09 05:42:55;;;;;;;79.97;26.60;;;;;;;7.43;84.50;98603.08;1728921;83;25632;-64
2022/11/09 05:45:24;;;;;;;75.75;26.30;;;;;;;7.40;84.79;98604.48;1729003;83;26387;-65
2022/11/09 05:47:50;;;;;;;63.60;24.27;;;;;;;7.37;84.72;98603.14;1728969;82;25466;-64
2022/11/09 05:50:17;;;;;;;30.12;14.93;;;;;;;7.38;84.64;98603.95;1729027;82;27417;-64
2022/11/09 05:52:43;;;;;;;42.73;24.70;;;;;;;7.36;85.09;98604.25;1728906;83;25453;-64
2022/11/09 05:55:10;;;;;;;33.92;18.70;;;;;;;7.33;85.57;98608.11;1729120;83;25638;-64
2022/11/09 05:57:36;;;;;;;43.42;23.18;;;;;;;7.34;84.84;98613.27;1728903;83;25728;-64
2022/11/09 06:00:06;;;;;;;41.55;21.45;;;;;;;7.36;85.28;98613.80;1728924;83;25492;-64
2022/11/09 06:02:33;;;;;;;31.48;17.30;;;;;;;7.40;84.98;98618.12;1729225;83;27382;-64
2022/11/09 06:04:59;;;;;;;32.75;17.45;;;;;;;7.43;84.73;98616.71;1715880;83;25755;-65
2022/11/09 06:07:25;;;;;;;45.30;21.60;;;;;;;7.44;84.89;98617.78;1682445;84;25642;-64
2022/11/09 06:09:52;;;;;;;33.08;17.23;;;;;;;7.47;85.01;98625.38;1673845;85;25720;-64
2022/11/09 06:12:18;;;;;;;26.60;15.10;;;;;;;7.51;84.97;98629.67;1674397;85;25618;-64
2022/11/09 06:14:44;;;;;;;32.50;15.13;;;;;;;7.52;84.81;98626.65;1683522;84;27476;-64
2022/11/09 06:17:10;;;;;;;125.20;62.45;;;;;;;7.57;85.10;98630.44;1673959;85;25444;-64
2022/11/09 06:19:36;;;;;;;107.60;55.67;;;;;;;7.59;84.80;98626.30;1674004;85;25648;-64
2022/11/09 06:22:03;;;;;;;58.63;31.05;;;;;;;7.60;84.76;98623.81;1673917;85;27822;-64
2022/11/09 06:24:29;;;;;;;44.18;19.73;;;;;;;7.61;84.61;98627.36;1674424;85;25598;-64
2022/11/09 06:26:56;;;;;;;61.95;27.77;;;;;;;7.60;84.79;98627.91;1674012;85;27388;-64
2022/11/09 06:29:22;;;;;;;57.85;25.52;;;;;;;7.63;84.84;98630.62;1674301;85;25505;-64
2022/11/09 06:31:50;;;;;;;37.30;17.30;;;;;;;7.65;84.98;98629.75;1674084;85;25451;-64
2022/11/09 06:34:16;;;;;;;42.93;20.08;;;;;;;7.70;84.94;98637.05;1678089;84;26092;-64
2022/11/09 06:36:43;;;;;;;34.63;15.95;;;;;;;7.74;85.43;98636.17;1689636;84;25756;-64
2022/11/09 06:39:10;;;;;;;31.80;14.58;;;;;;;7.82;85.50;98643.42;1691905;84;27299;-64
2022/11/09 06:41:36;;;;;;;65.83;32.78;;;;;;;7.89;86.10;98641.16;1678590;84;25477;-64
2022/11/09 06:44:04;;;;;;;44.95;22.52;;;;;;;7.95;85.82;98641.34;1674107;85;25941;-64
2022/11/09 06:46:32;;;;;;;44.05;23.20;;;;;;;7.99;85.99;98637.44;1674212;85;26068;-64
2022/11/09 06:48:58;;;;;;;33.88;18.50;;;;;;;8.02;85.88;98634.94;1674031;85;25709;-64
2022/11/09 06:51:25;;;;;;;36.25;18.90;;;;;;;8.06;85.78;98636.50;1674320;85;28111;-64
2022/11/09 06:53:51;;;;;;;40.45;20.12;;;;;;;8.11;85.60;98632.88;1674274;85;25460;-64
2022/11/09 06:56:17;;;;;;;36.45;18.75;;;;;;;8.18;85.36;98633.88;1674008;85;25676;-64
2022/11/09 06:58:44;;;;;;;32.28;16.35;;;;;;;8.24;85.08;98632.69;1674077;85;25872;-64
2022/11/09 07:01:15;;;;;;;30.30;15.68;;;;;;;8.31;84.87;98632.28;1674022;85;25665;-64
2022/11/09 07:03:42;;;;;;;31.70;16.35;;;;;;;8.36;84.86;98628.93;1673833;85;28374;-64
2022/11/09 07:06:11;;;;;;;25.45;13.55;;;;;;;8.41;84.74;98632.92;1653565;86;25818;-64
2022/11/09 07:08:38;;;;;;;28.45;16.23;;;;;;;8.47;84.68;98636.39;1667064;84;25629;-64
2022/11/09 07:11:18;;;;;;;34.20;19.35;;;;;;;8.53;84.55;98633.80;1666944;86;25922;-64
2022/11/09 07:13:42;;;;;;;30.30;16.90;;;;;;;8.64;84.46;98634.45;1666545;86;25717;-64
2022/11/09 07:16:11;;;;;;;28.70;15.05;;;;;;;8.76;84.30;98633.17;1667085;86;27440;-64
2022/11/09 07:18:37;;;;;;;27.27;14.40;;;;;;;8.90;84.11;98634.55;1666507;86;25822;-64
2022/11/09 07:21:05;;;;;;;28.47;14.87;;;;;;;9.03;83.71;98632.92;1666804;86;25632;-64
2022/11/09 07:23:31;;;;;;;26.23;13.98;;;;;;;9.11;83.47;98625.93;1667008;86;25759;-64
2022/11/09 07:25:59;;;;;;;28.35;15.18;;;;;;;9.19;83.46;98619.77;1666929;86;25493;-64
2022/11/09 07:28:25;;;;;;;29.85;14.95;;;;;;;9.31;83.29;98619.23;1666805;86;27561;-64
2022/11/09 07:30:52;;;;;;;24.45;12.93;;;;;;;9.44;82.78;98627.72;1666758;86;25690;-64
2022/11/09 07:33:21;;;;;;;27.73;14.23;;;;;;;9.53;82.50;98618.47;1666993;86;25678;-64
2022/11/09 07:35:48;;;;;;;29.70;14.23;;;;;;;9.64;82.13;98623.70;1666838;86;25786;-64
2022/11/09 07:38:15;;;;;;;26.62;14.63;;;;;;;9.76;82.04;98623.19;1666953;86;25647;-64
2022/11/09 07:40:43;;;;;;;24.50;13.53;;;;;;;9.89;81.62;98618.77;1667014;86;27479;-64
2022/11/09 07:43:11;;;;;;;32.40;16.55;;;;;;;10.05;81.04;98619.23;1666979;86;25718;-64
2022/11/09 07:45:37;;;;;;;42.00;22.77;;;;;;;10.23;80.45;98621.52;1667166;85;25486;-64
2022/11/09 07:48:08;;;;;;;39.50;20.68;;;;;;;10.40;80.70;98623.53;1667150;86;25803;-64
2022/11/09 07:50:36;;;;;;;22.98;12.55;;;;;;;10.59;80.21;98621.17;1667265;86;25673;-64
2022/11/09 07:53:05;;;;;;;35.20;14.80;;;;;;;10.70;78.87;98618.15;1666891;86;27422;-64
2022/11/09 07:55:32;;;;;;;24.45;12.85;;;;;;;10.81;78.95;98620.05;1666600;86;25919;-64
2022/11/09 07:58:04;;;;;;;30.15;16.23;;;;;;;10.90;79.31;98613.49;1666823;86;25749;-64
2022/11/09 08:00:33;;;;;;;28.73;15.58;;;;;;;11.07;79.44;98617.97;1667123;86;25793;-64
2022/11/09 08:03:00;;;;;;;24.77;12.60;;;;;;;11.26;78.64;98609.48;1667192;86;25764;-64
2022/11/09 08:05:26;;;;;;;29.63;16.27;;;;;;;11.43;77.52;98614.20;1671500;84;28023;-64
2022/11/09 08:08:03;;;;;;;34.92;18.35;;;;;;;11.57;77.35;98607.75;1687307;84;25682;-64
2022/11/09 08:10:31;;;;;;;29.77;17.52;;;;;;;11.71;77.92;98623.48;1677426;85;25453;-64
2022/11/09 08:13:01;;;;;;;32.10;16.32;;;;;;;11.94;77.79;98613.72;1677806;85;25730;-64
2022/11/09 08:15:28;;;;;;;26.87;15.20;;;;;;;12.19;77.24;98618.73;1678085;84;25644;-64
2022/11/09 08:18:05;;;;;;;29.70;17.02;;;;;;;12.36;76.46;98618.71;1677497;84;27485;-64
2022/11/09 08:20:41;;;;;;;26.52;15.18;;;;;;;12.58;76.46;98614.69;1677769;85;25899;-64
2022/11/09 08:23:15;;;;;;;27.62;14.55;;;;;;;12.74;74.79;98619.89;1677551;85;25684;-64
2022/11/09 08:25:51;;;;;;;23.95;14.03;;;;;;;12.89;74.63;98619.09;1677870;84;25753;-64
2022/11/09 08:28:26;;;;;;;29.10;16.17;;;;;;;13.04;72.74;98617.75;1689278;83;25603;-64
2022/11/09 08:31:02;;;;;;;30.65;17.12;;;;;;;13.29;73.20;98612.41;1688866;83;27559;-64
2022/11/09 08:33:32;;;;;;;28.40;15.55;;;;;;;13.52;73.41;98612.95;1692057;83;25675;-65
2022/11/09 08:35:58;;;;;;;23.57;14.20;;;;;;;13.74;73.19;98610.20;1694233;83;25702;-64
2022/11/09 08:38:25;;;;;;;22.48;14.40;;;;;;;13.86;70.79;98613.02;1703281;83;25725;-64
2022/11/09 08:40:57;;;;;;;28.05;16.55;;;;;;;13.86;70.64;98608.88;1709831;83;25680;-64
2022/11/09 08:43:24;;;;;;;22.58;13.65;;;;;;;13.90;71.16;98617.27;1709726;83;27473;-64
2022/11/09 08:45:50;;;;;;;25.97;15.28;;;;;;;13.79;70.69;98611.38;1709324;83;25707;-64
2022/11/09 08:48:17;;;;;;;23.40;14.98;;;;;;;13.74;70.76;98611.02;1709560;83;25635;-64
2022/11/09 08:50:43;;;;;;;22.40;14.58;;;;;;;13.65;71.15;98605.55;1695699;83;25691;-64
2022/11/09 08:53:09;;;;;;;21.23;13.53;;;;;;;13.64;70.80;98606.70;1694461;83;25701;-64
2022/11/09 08:55:36;;;;;;;23.12;13.10;;;;;;;13.51;69.75;98600.33;1697929;83;27452;-64
2022/11/09 08:58:04;;;;;;;23.75;14.53;;;;;;;13.51;69.75;98600.33;1700561;83;25698;-64
2022/11/09 09:00:31;;;;;;;23.60;13.50;;;;;;;13.51;70.47;98600.33;1709449;83;25489;-63
2022/11/09 09:02:58;;;;;;;27.05;15.20;;;;;;;13.55;69.36;98593.01;1709345;83;25770;-64
2022/11/09 09:05:25;;;;;;;23.02;14.70;;;;;;;13.55;69.36;98593.01;1709800;83;25643;-64
2022/11/09 09:07:51;;;;;;;25.15;15.68;;;;;;;13.63;69.50;98610.61;1716826;83;27830;-64
2022/11/09 09:10:18;;;;;;;23.85;14.68;;;;;;;13.70;69.59;98605.13;1720349;83;25654;-64
2022/11/09 09:12:45;;;;;;;23.07;14.60;;;;;;;13.77;69.39;98602.08;1720395;83;25643;-64
2022/11/09 09:15:47;;;;;;;21.55;13.30;;;;;;;13.95;68.29;98596.97;1721232;83;25958;-64
2022/11/09 09:18:17;;;;;;;21.45;13.35;;;;;;;13.95;68.29;98596.97;1596732;89;25747;-64
2022/11/09 09:21:07;;;;;;;23.12;13.68;;;;;;;14.22;68.44;98594.20;1598272;89;27684;-64
2022/11/09 09:23:44;;;;;;;24.25;14.90;;;;;;;14.55;67.96;98608.55;1597283;89;25484;-64
2022/11/09 09:26:25;;;;;;;28.92;17.15;;;;;;;14.82;66.40;98601.94;1597660;89;25517;-64
2022/11/09 09:29:12;;;;;;;26.10;15.68;;;;;;;15.05;67.51;98609.17;1597976;89;25901;-64
2022/11/09 09:31:48;;;;;;;21.95;13.68;;;;;;;15.41;66.52;98615.02;1595462;89;25689;-64
2022/11/09 09:34:15;;;;;;;20.97;12.98;;;;;;;15.75;65.29;98616.22;1598209;89;27795;-64
2022/11/09 09:36:42;;;;;;;25.37;15.18;;;;;;;15.99;62.95;98616.74;1597868;89;25694;-64
2022/11/09 09:39:08;;;;;;;22.50;13.78;;;;;;;16.25;64.21;98617.42;1597959;89;25630;-64
2022/11/09 09:41:40;;;;;;;22.02;14.75;;;;;;;16.48;62.80;98614.08;1597818;89;25707;-64
2022/11/09 09:44:48;;;;;;;22.32;14.73;;;;;;;16.74;61.86;98612.19;1598025;89;25455;-64
2022/11/09 09:48:01;;;;;;;22.10;13.68;;;;;;;16.93;62.57;98610.08;1597938;89;27500;-64
2022/11/09 09:50:46;;;;;;;23.60;14.55;;;;;;;17.31;60.70;98611.19;1595265;89;25528;-64
2022/11/09 09:53:45;;;;;;;23.10;14.90;;;;;;;17.57;60.72;98616.71;1598276;89;25702;-64
2022/11/09 09:56:20;;;;;;;20.72;14.00;;;;;;;17.91;58.61;98609.30;1556722;92;26740;-64
2022/11/09 09:59:04;;;;;;;23.25;16.40;;;;;;;18.17;58.76;98608.64;1557034;92;25512;-64
2022/11/09 10:01:41;;;;;;;21.25;13.98;;;;;;;18.24;58.53;98603.02;1556639;92;26781;-64
2022/11/09 10:04:23;;;;;;;21.87;14.70;;;;;;;18.22;56.99;98605.38;1556989;92;25806;-64
2022/11/09 10:07:00;;;;;;;16.42;11.57;;;;;;;18.03;56.21;98600.03;1556890;92;25556;-64
2022/11/09 10:09:44;;;;;;;21.45;14.87;;;;;;;17.90;55.36;98600.17;1556662;92;25753;-64
2022/11/09 10:12:33;;;;;;;18.30;12.88;;;;;;;17.94;57.07;98601.64;1556857;92;25849;-64
2022/11/09 10:15:14;;;;;;;20.35;13.78;;;;;;;18.25;55.42;98608.80;1556978;92;27506;-64
2022/11/09 10:18:10;;;;;;;20.48;13.43;;;;;;;18.43;55.77;98603.59;1534021;93;25800;-64
2022/11/09 10:21:08;;;;;;;17.35;12.80;;;;;;;18.70;55.54;98591.16;1538496;93;25786;-64
2022/11/09 10:23:58;;;;;;;18.05;12.28;;;;;;;18.86;54.16;98595.78;1538675;93;26254;-64
2022/11/09 10:26:39;;;;;;;15.72;11.63;;;;;;;19.17;53.33;98589.77;1538829;93;33480;-64
2022/11/09 10:29:13;;;;;;;15.45;10.90;;;;;;;19.29;50.81;98590.91;1531326;93;27618;-64
2022/11/09 10:31:41;;;;;;;19.77;12.25;;;;;;;19.12;52.61;98592.27;1548276;91;25806;-64
2022/11/09 10:34:18;;;;;;;20.02;12.93;;;;;;;19.24;54.01;98594.61;1573052;91;25496;-64
2022/11/09 10:36:50;;;;;;;15.75;12.20;;;;;;;19.46;52.67;98585.20;1572591;91;25799;-63
2022/11/09 10:39:17;;;;;;;17.15;11.73;;;;;;;19.67;51.90;98590.23;1572449;91;25688;-63
2022/11/09 10:41:48;;;;;;;15.30;12.13;;;;;;;19.72;50.96;98594.09;1572615;91;27417;-62
2022/11/09 10:44:17;;;;;;;17.80;11.73;;;;;;;19.67;51.70;98587.45;1572501;91;25467;-62
2022/11/09 10:47:11;;;;;;;15.45;11.73;;;;;;;19.81;51.29;98587.62;1573083;91;25705;-62
2022/11/09 10:49:39;;;;;;;17.37;12.10;;;;;;;19.85;51.18;98585.48;1572807;91;25745;-62
2022/11/09 10:52:29;;;;;;;16.50;11.70;;;;;;;19.71;49.83;98580.56;1572967;91;25660;-62
2022/11/09 10:55:15;;;;;;;15.30;11.18;;;;;;;19.76;51.12;98578.83;1570342;91;27440;-62
2022/11/09 10:57:56;;;;;;;14.18;10.72;;;;;;;19.90;50.77;98576.23;1538627;92;25766;-63
2022/11/09 11:00:23;;;;;;;14.20;10.72;;;;;;;20.03;51.28;98575.41;1542234;93;25628;-62
2022/11/09 11:02:50;;;;;;;15.18;11.45;;;;;;;20.22;49.82;98575.59;1542227;93;26306;-62
2022/11/09 11:05:28;;;;;;;13.72;10.08;;;;;;;20.25;48.43;98575.64;1523316;93;25681;-62
2022/11/09 11:07:54;;;;;;;15.08;10.93;;;;;;;20.26;48.93;98582.02;1542894;93;27937;-62
2022/11/09 11:10:23;;;;;;;12.25;9.08;;;;;;;20.42;49.63;98573.41;1542522;93;25710;-62
2022/11/09 11:13:07;;;;;;;14.45;10.35;;;;;;;20.47;47.74;98568.91;1542567;93;25687;-62
2022/11/09 11:15:40;;;;;;;13.70;10.08;;;;;;;20.49;47.95;98575.48;1542343;93;25778;-62
2022/11/09 11:18:25;;;;;;;14.53;10.70;;;;;;;20.72;48.37;98568.30;1565829;90;25519;-62
2022/11/09 11:21:13;;;;;;;14.40;9.78;;;;;;;20.90;47.23;98567.66;1536651;93;27549;-62
2022/11/09 11:23:40;;;;;;;12.37;9.18;;;;;;;20.86;47.37;98569.60;1536320;93;25779;-62
2022/11/09 11:26:24;;;;;;;14.47;9.48;;;;;;;20.82;46.80;98570.98;1536554;93;25747;-62
2022/11/09 11:29:01;;;;;;;13.68;10.65;;;;;;;20.59;45.77;98567.00;1536466;93;25733;-63
2022/11/09 11:31:27;;;;;;;12.85;9.90;;;;;;;20.74;47.08;98569.31;1541984;91;25701;-62
2022/11/09 11:33:55;;;;;;;13.85;10.18;;;;;;;20.91;46.03;98572.06;1523309;93;27409;-62
2022/11/09 11:36:48;;;;;;;12.33;10.18;;;;;;;20.77;46.27;98564.37;1492198;96;25831;-62
2022/11/09 11:39:31;;;;;;;14.25;10.90;;;;;;;20.65;46.18;98576.60;1543397;93;25619;-62